CheckWX is a tool to help pilots better visualize weather data.  It is not intended as a substitute for an official pre-flight weather briefing.

18:47:51 UTC

EGHH METAR
Bournemouth Airport
Bournemouth, United Kingdom
Current

28 mins ago

EGHH 171820Z 22007KT 9999 FEW048 13/10 Q1003
Observed
Oct-17 @ 18:20 UTC
Wind
  • 220° at 7 KTS
Visibility
10,000+ meters
Flight Rules
VFR
Cloud Levels
  • Few at 4,800' AGL
Temperature
13°C / 55°F
Dewpoint
10°C / 50°F
Humidity
82%
Altimeter
29.62" Hg
Pressure
1002.92 hPa
Previous

58 mins ago

EGHH 171750Z 22008KT 9999 FEW033 13/09 Q1003
Observed
Oct-17 @ 17:50 UTC
Wind
  • 220° at 8 KTS
Visibility
10,000+ meters
Flight Rules
VFR
Cloud Levels
  • Few at 3,300' AGL
Temperature
13°C / 55°F
Dewpoint
C / 48°F
Humidity
77%
Altimeter
29.62" Hg
Pressure
1002.92 hPa
Previous

1 hour ago

EGHH 171720Z 23009KT 9999 FEW026TCU 13/10 Q1003
Observed
Oct-17 @ 17:20 UTC
Wind
  • 230° at 9 KTS
Visibility
10,000+ meters
Flight Rules
VFR
Cloud Levels
  • Few at 2,600' AGL
Temperature
13°C / 55°F
Dewpoint
10°C / 50°F
Humidity
82%
Altimeter
29.62" Hg
Pressure
1002.92 hPa